RYR58JL EGSS-LFMP
Flight info
| Callsign | RYR58JL |
|---|---|
| Flight time | 1h 34m |
| Altitude | 33000 |
| Route | NUGBO M183 SILVA Q41 COWLY DCT GWC/N0443F390 UN859 SOPIL DCT BALAN DCT EVPOK DCT NARAK DCT GAI/N0342F190 G36 ORBIL |
| Aircraft | B38M/M-SADE3FGIJ1LRWYZ/SB1 |
Departure
| Time | 2026-04-22 06:22 |
|---|---|
| Airport | London Stansted Airport (EGSS) |
Arrival
| Time | 2026-04-22 07:56 |
|---|---|
| Airport | Perpignan-Rivesaltes (Llabanère) Airport (LFMP) |
| Time | Latitude | Longitude | Altitude | Speed | Heading |
|---|---|---|---|---|---|
| 2026-04-22 05:56 | 51.89149 | 0.25799 | 355 ft | 0 kts | 230° |
| 2026-04-22 06:09 | 51.89149 | 0.25800 | 355 ft | 1 kts | 230° |
| 2026-04-22 06:09 | 51.89162 | 0.25826 | 362 ft | 2 kts | 230° |
| 2026-04-22 06:09 | 51.89172 | 0.25854 | 359 ft | 4 kts | 283° |
| 2026-04-22 06:09 | 51.89159 | 0.25885 | 362 ft | 4 kts | 313° |
| 2026-04-22 06:10 | 51.89151 | 0.25898 | 361 ft | 0 kts | 313° |
| 2026-04-22 06:13 | 51.89160 | 0.25884 | 362 ft | 3 kts | 313° |
| 2026-04-22 06:14 | 51.89179 | 0.25849 | 357 ft | 5 kts | 313° |
| 2026-04-22 06:14 | 51.89211 | 0.25795 | 358 ft | 8 kts | 313° |
| 2026-04-22 06:14 | 51.89253 | 0.25721 | 358 ft | 10 kts | 313° |
| 2026-04-22 06:14 | 51.89287 | 0.25661 | 357 ft | 12 kts | 313° |
| 2026-04-22 06:15 | 51.89346 | 0.25570 | 355 ft | 11 kts | 327° |
| 2026-04-22 06:15 | 51.89409 | 0.25495 | 361 ft | 11 kts | 308° |
| 2026-04-22 06:15 | 51.89403 | 0.25390 | 358 ft | 11 kts | 229° |
| 2026-04-22 06:15 | 51.89342 | 0.25300 | 355 ft | 13 kts | 222° |
| 2026-04-22 06:16 | 51.89271 | 0.25193 | 358 ft | 15 kts | 225° |
| 2026-04-22 06:16 | 51.89213 | 0.25043 | 361 ft | 17 kts | 234° |
| 2026-04-22 06:16 | 51.89125 | 0.24903 | 358 ft | 19 kts | 222° |
| 2026-04-22 06:16 | 51.89025 | 0.24753 | 355 ft | 21 kts | 223° |
| 2026-04-22 06:17 | 51.88914 | 0.24587 | 360 ft | 23 kts | 223° |
| 2026-04-22 06:17 | 51.88791 | 0.24400 | 349 ft | 27 kts | 223° |
| 2026-04-22 06:17 | 51.88652 | 0.24193 | 347 ft | 29 kts | 222° |
| 2026-04-22 06:17 | 51.88522 | 0.23997 | 353 ft | 25 kts | 223° |
| 2026-04-22 06:18 | 51.88406 | 0.23822 | 346 ft | 21 kts | 223° |
| 2026-04-22 06:18 | 51.88294 | 0.23657 | 350 ft | 22 kts | 223° |
| 2026-04-22 06:18 | 51.88174 | 0.23478 | 343 ft | 24 kts | 223° |
| 2026-04-22 06:18 | 51.88047 | 0.23287 | 339 ft | 24 kts | 223° |
| 2026-04-22 06:19 | 51.87931 | 0.23112 | 339 ft | 22 kts | 223° |
| 2026-04-22 06:19 | 51.87850 | 0.22991 | 340 ft | 13 kts | 223° |
| 2026-04-22 06:19 | 51.87784 | 0.22891 | 342 ft | 14 kts | 223° |
| 2026-04-22 06:19 | 51.87706 | 0.22773 | 340 ft | 17 kts | 223° |
| 2026-04-22 06:20 | 51.87611 | 0.22632 | 338 ft | 20 kts | 223° |
| 2026-04-22 06:20 | 51.87532 | 0.22514 | 332 ft | 6 kts | 222° |
| 2026-04-22 06:20 | 51.87521 | 0.22438 | 330 ft | 9 kts | 288° |
| 2026-04-22 06:20 | 51.87550 | 0.22374 | 329 ft | 6 kts | 312° |
| 2026-04-22 06:21 | 51.87575 | 0.22332 | 327 ft | 2 kts | 316° |
| 2026-04-22 06:21 | 51.87597 | 0.22299 | 324 ft | 7 kts | 320° |
| 2026-04-22 06:21 | 51.87647 | 0.22257 | 326 ft | 9 kts | 353° |
| 2026-04-22 06:21 | 51.87706 | 0.22287 | 327 ft | 9 kts | 39° |
| 2026-04-22 06:22 | 51.87788 | 0.22410 | 330 ft | 38 kts | 42° |
| 2026-04-22 06:22 | 51.88189 | 0.23013 | 333 ft | 117 kts | 43° |
| 2026-04-22 06:22 | 51.88927 | 0.24125 | 499 ft | 163 kts | 44° |
| 2026-04-22 06:22 | 51.89784 | 0.25378 | 1354 ft | 172 kts | 43° |
| 2026-04-22 06:23 | 51.90704 | 0.26639 | 2309 ft | 175 kts | 47° |
| 2026-04-22 06:23 | 51.91620 | 0.28087 | 2796 ft | 195 kts | 49° |
| 2026-04-22 06:23 | 51.92841 | 0.29367 | 3170 ft | 230 kts | 24° |
| 2026-04-22 06:23 | 51.94495 | 0.29454 | 4090 ft | 243 kts | 349° |
| 2026-04-22 06:24 | 51.96871 | 0.25673 | 6085 ft | 261 kts | 285° |
| 2026-04-22 06:24 | 51.97168 | 0.22763 | 6929 ft | 265 kts | 279° |
| 2026-04-22 06:24 | 51.97496 | 0.19714 | 7480 ft | 283 kts | 280° |
| 2026-04-22 06:25 | 51.97853 | 0.16474 | 8051 ft | 299 kts | 280° |
| 2026-04-22 06:25 | 51.98222 | 0.13112 | 8844 ft | 304 kts | 280° |
| 2026-04-22 06:25 | 51.98594 | 0.09705 | 9766 ft | 308 kts | 280° |
| 2026-04-22 06:25 | 51.98874 | 0.06252 | 10595 ft | 311 kts | 268° |
| 2026-04-22 06:26 | 51.98435 | 0.02856 | 11442 ft | 309 kts | 244° |
| 2026-04-22 06:26 | 51.97202 | 0.00054 | 12261 ft | 305 kts | 218° |
| 2026-04-22 06:26 | 51.95401 | -0.01760 | 12932 ft | 310 kts | 199° |
| 2026-04-22 06:26 | 51.93345 | -0.03123 | 13337 ft | 327 kts | 200° |
| 2026-04-22 06:27 | 51.91207 | -0.04589 | 13877 ft | 340 kts | 200° |
| 2026-04-22 06:27 | 51.89028 | -0.06093 | 14658 ft | 341 kts | 200° |
| 2026-04-22 06:27 | 51.86825 | -0.07608 | 15343 ft | 346 kts | 201° |
| 2026-04-22 06:27 | 51.84632 | -0.09119 | 16058 ft | 349 kts | 201° |
| 2026-04-22 06:28 | 51.82357 | -0.10682 | 16821 ft | 353 kts | 201° |
| 2026-04-22 06:28 | 51.80088 | -0.12243 | 17514 ft | 357 kts | 202° |
| 2026-04-22 06:28 | 51.77816 | -0.13798 | 18122 ft | 362 kts | 202° |
| 2026-04-22 06:28 | 51.75459 | -0.15416 | 18756 ft | 367 kts | 202° |
| 2026-04-22 06:29 | 51.73097 | -0.17032 | 19298 ft | 371 kts | 203° |
| 2026-04-22 06:29 | 51.70704 | -0.18669 | 19817 ft | 375 kts | 204° |
| 2026-04-22 06:29 | 51.68332 | -0.20291 | 20358 ft | 378 kts | 204° |
| 2026-04-22 06:29 | 51.65895 | -0.21953 | 20864 ft | 382 kts | 204° |
| 2026-04-22 06:30 | 51.63443 | -0.23627 | 21412 ft | 385 kts | 205° |
| 2026-04-22 06:30 | 51.60963 | -0.25310 | 21887 ft | 390 kts | 205° |
| 2026-04-22 06:30 | 51.58461 | -0.27013 | 22272 ft | 393 kts | 205° |
| 2026-04-22 06:30 | 51.55935 | -0.28725 | 22781 ft | 397 kts | 206° |
| 2026-04-22 06:31 | 51.53375 | -0.30460 | 23305 ft | 401 kts | 206° |
| 2026-04-22 06:31 | 51.50796 | -0.32205 | 23813 ft | 404 kts | 206° |
| 2026-04-22 06:31 | 51.48192 | -0.33966 | 24250 ft | 408 kts | 207° |
| 2026-04-22 06:31 | 51.45566 | -0.35740 | 24720 ft | 410 kts | 207° |
| 2026-04-22 06:32 | 51.42936 | -0.37514 | 25183 ft | 412 kts | 207° |
| 2026-04-22 06:32 | 51.40288 | -0.39297 | 25645 ft | 414 kts | 207° |
| 2026-04-22 06:32 | 51.37620 | -0.41092 | 26100 ft | 416 kts | 207° |
| 2026-04-22 06:32 | 51.34949 | -0.42887 | 26549 ft | 418 kts | 207° |
| 2026-04-22 06:33 | 51.32259 | -0.44692 | 26975 ft | 420 kts | 207° |
| 2026-04-22 06:33 | 51.29565 | -0.46497 | 27462 ft | 421 kts | 207° |
| 2026-04-22 06:33 | 51.26851 | -0.48313 | 27875 ft | 424 kts | 208° |
| 2026-04-22 06:33 | 51.24130 | -0.50131 | 28299 ft | 426 kts | 208° |
| 2026-04-22 06:34 | 51.21386 | -0.51960 | 28707 ft | 428 kts | 207° |
| 2026-04-22 06:34 | 51.18486 | -0.53215 | 29115 ft | 440 kts | 189° |
| 2026-04-22 06:34 | 51.15406 | -0.52883 | 29569 ft | 451 kts | 169° |
| 2026-04-22 06:34 | 51.12433 | -0.51221 | 29906 ft | 458 kts | 160° |
| 2026-04-22 06:35 | 51.09427 | -0.49571 | 30222 ft | 457 kts | 169° |
| 2026-04-22 06:35 | 51.06355 | -0.48187 | 30537 ft | 461 kts | 166° |
| 2026-04-22 06:35 | 51.03359 | -0.46722 | 30833 ft | 463 kts | 166° |
| 2026-04-22 06:35 | 51.00283 | -0.45185 | 31138 ft | 465 kts | 166° |
| 2026-04-22 06:36 | 50.97190 | -0.43618 | 31443 ft | 467 kts | 166° |
| 2026-04-22 06:36 | 50.94096 | -0.42043 | 31732 ft | 469 kts | 166° |
| 2026-04-22 06:36 | 50.90980 | -0.40458 | 32079 ft | 470 kts | 165° |
| 2026-04-22 06:36 | 50.87876 | -0.38879 | 32498 ft | 468 kts | 166° |
| 2026-04-22 06:37 | 50.84782 | -0.37306 | 32910 ft | 467 kts | 166° |
| 2026-04-22 06:37 | 50.81694 | -0.35738 | 33265 ft | 467 kts | 166° |
| 2026-04-22 06:37 | 50.78591 | -0.34168 | 33373 ft | 467 kts | 166° |
| 2026-04-22 06:37 | 50.75506 | -0.32607 | 33767 ft | 466 kts | 166° |
| 2026-04-22 06:38 | 50.72416 | -0.31046 | 34068 ft | 467 kts | 166° |
| 2026-04-22 06:38 | 50.69316 | -0.29484 | 34333 ft | 468 kts | 166° |
| 2026-04-22 06:38 | 50.66208 | -0.27919 | 34578 ft | 469 kts | 166° |
| 2026-04-22 06:38 | 50.63092 | -0.26354 | 34852 ft | 470 kts | 166° |
| 2026-04-22 06:39 | 50.60030 | -0.24816 | 35170 ft | 468 kts | 166° |
| 2026-04-22 06:39 | 50.56927 | -0.23260 | 35442 ft | 469 kts | 166° |
| 2026-04-22 06:39 | 50.53818 | -0.21704 | 35709 ft | 469 kts | 166° |
| 2026-04-22 06:39 | 50.50711 | -0.20151 | 35978 ft | 469 kts | 166° |
| 2026-04-22 06:40 | 50.47600 | -0.18598 | 36245 ft | 469 kts | 165° |
| 2026-04-22 06:40 | 50.44490 | -0.17047 | 36510 ft | 469 kts | 165° |
| 2026-04-22 06:40 | 50.41377 | -0.15497 | 36746 ft | 469 kts | 165° |
| 2026-04-22 06:40 | 50.38270 | -0.13953 | 37027 ft | 468 kts | 165° |
| 2026-04-22 06:41 | 50.35177 | -0.12418 | 37290 ft | 468 kts | 165° |
| 2026-04-22 06:41 | 50.32073 | -0.10879 | 37525 ft | 468 kts | 165° |
| 2026-04-22 06:41 | 50.28972 | -0.09344 | 37784 ft | 467 kts | 165° |
| 2026-04-22 06:41 | 50.25873 | -0.07813 | 38043 ft | 466 kts | 165° |
| 2026-04-22 06:42 | 50.22785 | -0.06288 | 38294 ft | 465 kts | 165° |
| 2026-04-22 06:42 | 50.19697 | -0.04766 | 38516 ft | 465 kts | 165° |
| 2026-04-22 06:42 | 50.16617 | -0.03251 | 38747 ft | 464 kts | 165° |
| 2026-04-22 06:42 | 50.13545 | -0.01740 | 38934 ft | 464 kts | 165° |
| 2026-04-22 06:43 | 50.10462 | -0.00253 | 39097 ft | 462 kts | 168° |
| 2026-04-22 06:43 | 50.07349 | 0.00945 | 39231 ft | 461 kts | 168° |
| 2026-04-22 06:43 | 50.04231 | 0.02158 | 39251 ft | 463 kts | 168° |
| 2026-04-22 06:44 | 49.97971 | 0.04638 | 39227 ft | 463 kts | 168° |
| 2026-04-22 06:44 | 49.91726 | 0.07115 | 39221 ft | 464 kts | 168° |
| 2026-04-22 06:45 | 49.85481 | 0.09587 | 39209 ft | 464 kts | 168° |
| 2026-04-22 06:45 | 49.79228 | 0.12055 | 39203 ft | 464 kts | 168° |
| 2026-04-22 06:46 | 49.72978 | 0.14515 | 39184 ft | 464 kts | 168° |
| 2026-04-22 06:46 | 49.66723 | 0.17005 | 39189 ft | 464 kts | 168° |
| 2026-04-22 06:47 | 49.60479 | 0.19522 | 39182 ft | 464 kts | 168° |
| 2026-04-22 06:47 | 49.54271 | 0.22015 | 39185 ft | 464 kts | 168° |
| 2026-04-22 06:48 | 49.48015 | 0.24520 | 39180 ft | 465 kts | 168° |
| 2026-04-22 06:48 | 49.41750 | 0.27022 | 39184 ft | 465 kts | 168° |
| 2026-04-22 06:49 | 49.35497 | 0.29514 | 39178 ft | 465 kts | 168° |
| 2026-04-22 06:49 | 49.29235 | 0.32080 | 39184 ft | 466 kts | 168° |
| 2026-04-22 06:50 | 49.22991 | 0.34720 | 39182 ft | 465 kts | 168° |
| 2026-04-22 06:50 | 49.16751 | 0.37341 | 39175 ft | 465 kts | 168° |
| 2026-04-22 06:51 | 49.10510 | 0.39956 | 39177 ft | 465 kts | 168° |
| 2026-04-22 06:51 | 49.04260 | 0.42566 | 39163 ft | 465 kts | 168° |
| 2026-04-22 06:52 | 48.98006 | 0.45161 | 39168 ft | 465 kts | 169° |
| 2026-04-22 06:52 | 48.91730 | 0.47721 | 39172 ft | 469 kts | 167° |
| 2026-04-22 06:53 | 48.85439 | 0.50384 | 39160 ft | 468 kts | 168° |
| 2026-04-22 06:53 | 48.79186 | 0.52958 | 39163 ft | 468 kts | 169° |
| 2026-04-22 06:54 | 48.72874 | 0.55434 | 39162 ft | 468 kts | 169° |
| 2026-04-22 06:54 | 48.66575 | 0.57910 | 39159 ft | 468 kts | 169° |
| 2026-04-22 06:55 | 48.60268 | 0.60384 | 39154 ft | 467 kts | 169° |
| 2026-04-22 06:55 | 48.53962 | 0.62851 | 39152 ft | 467 kts | 169° |
| 2026-04-22 06:56 | 48.47716 | 0.65387 | 39143 ft | 468 kts | 168° |
| 2026-04-22 06:56 | 48.41439 | 0.67933 | 39142 ft | 467 kts | 168° |
| 2026-04-22 06:57 | 48.35158 | 0.70472 | 39139 ft | 467 kts | 168° |
| 2026-04-22 06:57 | 48.28874 | 0.73006 | 39128 ft | 467 kts | 168° |
| 2026-04-22 06:58 | 48.22579 | 0.75508 | 39134 ft | 467 kts | 169° |
| 2026-04-22 06:58 | 48.16334 | 0.77968 | 39127 ft | 467 kts | 169° |
| 2026-04-22 06:59 | 48.10043 | 0.80442 | 39124 ft | 467 kts | 169° |
| 2026-04-22 06:59 | 48.03750 | 0.82910 | 39109 ft | 467 kts | 169° |
| 2026-04-22 07:00 | 47.97454 | 0.85373 | 39112 ft | 468 kts | 169° |
| 2026-04-22 07:00 | 47.92208 | 0.87420 | 39115 ft | 469 kts | 169° |
| 2026-04-22 07:01 | 47.85888 | 0.89881 | 39100 ft | 469 kts | 169° |
| 2026-04-22 07:01 | 47.79567 | 0.92334 | 39093 ft | 469 kts | 169° |
| 2026-04-22 07:02 | 47.73250 | 0.94779 | 39095 ft | 469 kts | 169° |
| 2026-04-22 07:02 | 47.66937 | 0.97216 | 39092 ft | 470 kts | 169° |
| 2026-04-22 07:03 | 47.60611 | 0.99653 | 39085 ft | 469 kts | 169° |
| 2026-04-22 07:03 | 47.54292 | 1.02080 | 39078 ft | 469 kts | 169° |
| 2026-04-22 07:04 | 47.47973 | 1.04502 | 39079 ft | 469 kts | 169° |
| 2026-04-22 07:04 | 47.41621 | 1.06322 | 39054 ft | 458 kts | 186° |
| 2026-04-22 07:05 | 47.35244 | 1.06215 | 39038 ft | 460 kts | 185° |
| 2026-04-22 07:05 | 47.28881 | 1.06110 | 39078 ft | 461 kts | 186° |
| 2026-04-22 07:06 | 47.22480 | 1.05964 | 39067 ft | 460 kts | 186° |
| 2026-04-22 07:06 | 47.16074 | 1.05814 | 39053 ft | 460 kts | 186° |
| 2026-04-22 07:07 | 47.09667 | 1.05665 | 39058 ft | 461 kts | 186° |
| 2026-04-22 07:07 | 47.03261 | 1.05508 | 39049 ft | 460 kts | 186° |
| 2026-04-22 07:08 | 46.96867 | 1.05226 | 39044 ft | 460 kts | 187° |
| 2026-04-22 07:08 | 46.90478 | 1.04956 | 39038 ft | 459 kts | 187° |
| 2026-04-22 07:09 | 46.84089 | 1.04688 | 39039 ft | 459 kts | 187° |
| 2026-04-22 07:09 | 46.77702 | 1.04421 | 39034 ft | 459 kts | 187° |
| 2026-04-22 07:10 | 46.71325 | 1.04154 | 39025 ft | 459 kts | 187° |
| 2026-04-22 07:10 | 46.64937 | 1.03888 | 39027 ft | 459 kts | 187° |
| 2026-04-22 07:11 | 46.58552 | 1.03623 | 39014 ft | 459 kts | 187° |
| 2026-04-22 07:11 | 46.52159 | 1.03441 | 38997 ft | 462 kts | 180° |
| 2026-04-22 07:12 | 46.45823 | 1.05335 | 38985 ft | 468 kts | 172° |
| 2026-04-22 07:12 | 46.39470 | 1.07404 | 39007 ft | 469 kts | 172° |
| 2026-04-22 07:13 | 46.33109 | 1.09521 | 38986 ft | 468 kts | 171° |
| 2026-04-22 07:13 | 46.26762 | 1.11633 | 38973 ft | 468 kts | 171° |
| 2026-04-22 07:14 | 46.20413 | 1.13741 | 38979 ft | 468 kts | 171° |
| 2026-04-22 07:14 | 46.14061 | 1.15846 | 38954 ft | 468 kts | 171° |
| 2026-04-22 07:15 | 46.07711 | 1.17943 | 38944 ft | 469 kts | 171° |
| 2026-04-22 07:15 | 46.01391 | 1.20027 | 38952 ft | 469 kts | 171° |
| 2026-04-22 07:16 | 45.95044 | 1.22115 | 38928 ft | 469 kts | 171° |
| 2026-04-22 07:16 | 45.88694 | 1.24198 | 38937 ft | 468 kts | 171° |
| 2026-04-22 07:17 | 45.82345 | 1.26277 | 38939 ft | 468 kts | 171° |
| 2026-04-22 07:17 | 45.76002 | 1.28348 | 38933 ft | 468 kts | 171° |
| 2026-04-22 07:18 | 45.69661 | 1.30414 | 38937 ft | 468 kts | 171° |
| 2026-04-22 07:18 | 45.63316 | 1.32477 | 38940 ft | 468 kts | 171° |
| 2026-04-22 07:19 | 45.56973 | 1.34535 | 38929 ft | 467 kts | 171° |
| 2026-04-22 07:19 | 45.50624 | 1.36590 | 38933 ft | 469 kts | 171° |
| 2026-04-22 07:20 | 45.44260 | 1.38644 | 38929 ft | 469 kts | 171° |
| 2026-04-22 07:20 | 45.37897 | 1.40693 | 38937 ft | 469 kts | 171° |
| 2026-04-22 07:21 | 45.31532 | 1.42738 | 38940 ft | 470 kts | 171° |
| 2026-04-22 07:21 | 45.25159 | 1.44781 | 38952 ft | 470 kts | 171° |
| 2026-04-22 07:22 | 45.18788 | 1.46819 | 38960 ft | 470 kts | 171° |
| 2026-04-22 07:22 | 45.12408 | 1.48855 | 38963 ft | 470 kts | 170° |
| 2026-04-22 07:23 | 45.06029 | 1.50887 | 38960 ft | 470 kts | 170° |
| 2026-04-22 07:23 | 44.99659 | 1.52910 | 38948 ft | 470 kts | 171° |
| 2026-04-22 07:24 | 44.93308 | 1.54923 | 38928 ft | 465 kts | 171° |
| 2026-04-22 07:24 | 44.86991 | 1.56921 | 38932 ft | 465 kts | 171° |
| 2026-04-22 07:25 | 44.80717 | 1.58901 | 38933 ft | 466 kts | 171° |
| 2026-04-22 07:25 | 44.74397 | 1.60890 | 38933 ft | 466 kts | 171° |
| 2026-04-22 07:26 | 44.68073 | 1.62877 | 38933 ft | 466 kts | 171° |
| 2026-04-22 07:26 | 44.64905 | 1.63870 | 38812 ft | 467 kts | 171° |
| 2026-04-22 07:26 | 44.61744 | 1.64860 | 38586 ft | 465 kts | 171° |
| 2026-04-22 07:26 | 44.58592 | 1.65847 | 38267 ft | 464 kts | 171° |
| 2026-04-22 07:27 | 44.55455 | 1.66827 | 37892 ft | 458 kts | 171° |
| 2026-04-22 07:27 | 44.52357 | 1.67794 | 37260 ft | 457 kts | 171° |
| 2026-04-22 07:27 | 44.49253 | 1.68745 | 36604 ft | 456 kts | 170° |
| 2026-04-22 07:27 | 44.46168 | 1.69733 | 36071 ft | 452 kts | 170° |
| 2026-04-22 07:28 | 44.40109 | 1.71601 | 35180 ft | 442 kts | 171° |
| 2026-04-22 07:28 | 44.37121 | 1.72530 | 34677 ft | 438 kts | 170° |
| 2026-04-22 07:28 | 44.34159 | 1.73456 | 34213 ft | 434 kts | 170° |
| 2026-04-22 07:29 | 44.31215 | 1.74362 | 33666 ft | 431 kts | 171° |
| 2026-04-22 07:29 | 44.28293 | 1.75118 | 33092 ft | 427 kts | 175° |
| 2026-04-22 07:29 | 44.25360 | 1.75737 | 32581 ft | 424 kts | 174° |
| 2026-04-22 07:29 | 44.22470 | 1.76371 | 32166 ft | 418 kts | 174° |
| 2026-04-22 07:30 | 44.19609 | 1.77007 | 31736 ft | 414 kts | 174° |
| 2026-04-22 07:30 | 44.16779 | 1.77642 | 31295 ft | 410 kts | 174° |
| 2026-04-22 07:30 | 44.13973 | 1.78272 | 30841 ft | 408 kts | 174° |
| 2026-04-22 07:30 | 44.11181 | 1.78898 | 30398 ft | 405 kts | 174° |
| 2026-04-22 07:31 | 44.08407 | 1.79520 | 29967 ft | 402 kts | 174° |
| 2026-04-22 07:31 | 44.05655 | 1.80136 | 29477 ft | 400 kts | 174° |
| 2026-04-22 07:31 | 44.02929 | 1.80745 | 29035 ft | 396 kts | 174° |
| 2026-04-22 07:31 | 44.00220 | 1.81350 | 28620 ft | 392 kts | 174° |
| 2026-04-22 07:32 | 43.97572 | 1.81942 | 28119 ft | 391 kts | 174° |
| 2026-04-22 07:32 | 43.94934 | 1.82963 | 27472 ft | 399 kts | 157° |
| 2026-04-22 07:32 | 43.92549 | 1.84957 | 27032 ft | 399 kts | 150° |
| 2026-04-22 07:32 | 43.90204 | 1.86951 | 26731 ft | 393 kts | 151° |
| 2026-04-22 07:33 | 43.87884 | 1.88928 | 26339 ft | 390 kts | 151° |
| 2026-04-22 07:33 | 43.85586 | 1.90899 | 25954 ft | 387 kts | 151° |
| 2026-04-22 07:33 | 43.83302 | 1.92863 | 25565 ft | 385 kts | 150° |
| 2026-04-22 07:33 | 43.81038 | 1.94810 | 25176 ft | 384 kts | 151° |
| 2026-04-22 07:34 | 43.78775 | 1.96754 | 24799 ft | 382 kts | 151° |
| 2026-04-22 07:34 | 43.76524 | 1.98688 | 24434 ft | 380 kts | 151° |
| 2026-04-22 07:34 | 43.74283 | 2.00611 | 24055 ft | 378 kts | 151° |
| 2026-04-22 07:34 | 43.72048 | 2.02531 | 23691 ft | 377 kts | 150° |
| 2026-04-22 07:35 | 43.69849 | 2.04514 | 23215 ft | 378 kts | 149° |
| 2026-04-22 07:35 | 43.67658 | 2.06492 | 22819 ft | 375 kts | 149° |
| 2026-04-22 07:35 | 43.65484 | 2.08449 | 22479 ft | 371 kts | 149° |
| 2026-04-22 07:35 | 43.63328 | 2.10386 | 22122 ft | 368 kts | 149° |
| 2026-04-22 07:36 | 43.61188 | 2.12306 | 21756 ft | 365 kts | 149° |
| 2026-04-22 07:36 | 43.59072 | 2.14203 | 21417 ft | 362 kts | 150° |
| 2026-04-22 07:36 | 43.56969 | 2.16087 | 21070 ft | 360 kts | 150° |
| 2026-04-22 07:36 | 43.54874 | 2.17962 | 20720 ft | 357 kts | 150° |
| 2026-04-22 07:37 | 43.52823 | 2.19796 | 20343 ft | 355 kts | 150° |
| 2026-04-22 07:37 | 43.50755 | 2.21644 | 20000 ft | 353 kts | 150° |
| 2026-04-22 07:37 | 43.48700 | 2.23479 | 19653 ft | 351 kts | 150° |
| 2026-04-22 07:37 | 43.46656 | 2.25296 | 19295 ft | 350 kts | 150° |
| 2026-04-22 07:38 | 43.44573 | 2.27126 | 18925 ft | 349 kts | 150° |
| 2026-04-22 07:38 | 43.42557 | 2.28897 | 18584 ft | 348 kts | 150° |
| 2026-04-22 07:38 | 43.40524 | 2.30682 | 18245 ft | 346 kts | 151° |
| 2026-04-22 07:38 | 43.38500 | 2.32460 | 17889 ft | 344 kts | 150° |
| 2026-04-22 07:39 | 43.36495 | 2.34219 | 17539 ft | 341 kts | 150° |
| 2026-04-22 07:39 | 43.34502 | 2.35959 | 17172 ft | 339 kts | 151° |
| 2026-04-22 07:39 | 43.32514 | 2.37676 | 16824 ft | 336 kts | 151° |
| 2026-04-22 07:39 | 43.30540 | 2.39382 | 16522 ft | 333 kts | 151° |
| 2026-04-22 07:40 | 43.28590 | 2.41066 | 16204 ft | 330 kts | 151° |
| 2026-04-22 07:40 | 43.26653 | 2.42739 | 15880 ft | 328 kts | 151° |
| 2026-04-22 07:40 | 43.24727 | 2.44400 | 15557 ft | 326 kts | 151° |
| 2026-04-22 07:40 | 43.22817 | 2.46047 | 15236 ft | 324 kts | 151° |
| 2026-04-22 07:41 | 43.20909 | 2.47691 | 14915 ft | 322 kts | 151° |
| 2026-04-22 07:41 | 43.19066 | 2.49428 | 14574 ft | 324 kts | 139° |
| 2026-04-22 07:41 | 43.17629 | 2.51808 | 14227 ft | 325 kts | 129° |
| 2026-04-22 07:41 | 43.16263 | 2.54255 | 13935 ft | 323 kts | 129° |
| 2026-04-22 07:42 | 43.14896 | 2.56694 | 13591 ft | 322 kts | 129° |
| 2026-04-22 07:42 | 43.13535 | 2.59125 | 13255 ft | 321 kts | 129° |
| 2026-04-22 07:42 | 43.12183 | 2.61540 | 12918 ft | 318 kts | 129° |
| 2026-04-22 07:42 | 43.10842 | 2.63934 | 12618 ft | 315 kts | 129° |
| 2026-04-22 07:43 | 43.09510 | 2.66311 | 12305 ft | 313 kts | 129° |
| 2026-04-22 07:43 | 43.08190 | 2.68665 | 12016 ft | 310 kts | 129° |
| 2026-04-22 07:43 | 43.06882 | 2.70995 | 11711 ft | 308 kts | 129° |
| 2026-04-22 07:43 | 43.05579 | 2.73315 | 11404 ft | 306 kts | 129° |
| 2026-04-22 07:44 | 43.04287 | 2.75611 | 11104 ft | 304 kts | 129° |
| 2026-04-22 07:44 | 43.02999 | 2.77901 | 10794 ft | 303 kts | 129° |
| 2026-04-22 07:44 | 43.01722 | 2.80170 | 10496 ft | 301 kts | 129° |
| 2026-04-22 07:44 | 43.00451 | 2.82425 | 10188 ft | 299 kts | 129° |
| 2026-04-22 07:45 | 42.99190 | 2.84661 | 9985 ft | 294 kts | 129° |
| 2026-04-22 07:45 | 42.97954 | 2.86854 | 9707 ft | 291 kts | 129° |
| 2026-04-22 07:45 | 42.96719 | 2.89041 | 9384 ft | 290 kts | 129° |
| 2026-04-22 07:45 | 42.95492 | 2.91211 | 9079 ft | 288 kts | 129° |
| 2026-04-22 07:46 | 42.94273 | 2.93368 | 8786 ft | 286 kts | 128° |
| 2026-04-22 07:46 | 42.93062 | 2.95507 | 8487 ft | 285 kts | 128° |
| 2026-04-22 07:46 | 42.91870 | 2.97611 | 8207 ft | 283 kts | 128° |
| 2026-04-22 07:46 | 42.90670 | 2.99729 | 7919 ft | 281 kts | 128° |
| 2026-04-22 07:47 | 42.89477 | 3.01832 | 7631 ft | 279 kts | 128° |
| 2026-04-22 07:47 | 42.88114 | 3.03679 | 7303 ft | 276 kts | 150° |
| 2026-04-22 07:47 | 42.86348 | 3.04627 | 7005 ft | 273 kts | 166° |
| 2026-04-22 07:47 | 42.84532 | 3.05346 | 6739 ft | 271 kts | 165° |
| 2026-04-22 07:48 | 42.82727 | 3.06048 | 6453 ft | 269 kts | 165° |
| 2026-04-22 07:48 | 42.80927 | 3.06736 | 6164 ft | 268 kts | 166° |
| 2026-04-22 07:48 | 42.79136 | 3.07412 | 5872 ft | 267 kts | 166° |
| 2026-04-22 07:48 | 42.77350 | 3.08081 | 5584 ft | 265 kts | 166° |
| 2026-04-22 07:49 | 42.75590 | 3.08738 | 5401 ft | 256 kts | 166° |
| 2026-04-22 07:49 | 42.73925 | 3.09357 | 5292 ft | 240 kts | 166° |
| 2026-04-22 07:49 | 42.72883 | 3.09744 | 5197 ft | 230 kts | 166° |
| 2026-04-22 07:49 | 42.71375 | 3.10281 | 5050 ft | 217 kts | 172° |
| 2026-04-22 07:50 | 42.69934 | 3.10074 | 4802 ft | 207 kts | 204° |
| 2026-04-22 07:50 | 42.68687 | 3.09176 | 4549 ft | 200 kts | 212° |
| 2026-04-22 07:50 | 42.67507 | 3.08238 | 4319 ft | 194 kts | 212° |
| 2026-04-22 07:50 | 42.66377 | 3.07319 | 4158 ft | 184 kts | 213° |
| 2026-04-22 07:51 | 42.65314 | 3.06450 | 4013 ft | 173 kts | 212° |
| 2026-04-22 07:51 | 42.64294 | 3.05595 | 3860 ft | 174 kts | 213° |
| 2026-04-22 07:51 | 42.63248 | 3.04711 | 3798 ft | 180 kts | 213° |
| 2026-04-22 07:51 | 42.62168 | 3.03808 | 3790 ft | 183 kts | 213° |
| 2026-04-22 07:52 | 42.61163 | 3.02767 | 3689 ft | 182 kts | 230° |
| 2026-04-22 07:52 | 42.60524 | 3.01317 | 3516 ft | 180 kts | 258° |
| 2026-04-22 07:52 | 42.60570 | 2.99657 | 3231 ft | 177 kts | 291° |
| 2026-04-22 07:52 | 42.61259 | 2.98314 | 2953 ft | 175 kts | 322° |
| 2026-04-22 07:53 | 42.62252 | 2.97368 | 2753 ft | 174 kts | 328° |
| 2026-04-22 07:53 | 42.63238 | 2.96440 | 2523 ft | 171 kts | 327° |
| 2026-04-22 07:53 | 42.64236 | 2.95563 | 2325 ft | 171 kts | 330° |
| 2026-04-22 07:53 | 42.65236 | 2.94719 | 2122 ft | 168 kts | 329° |
| 2026-04-22 07:54 | 42.66222 | 2.93879 | 1886 ft | 167 kts | 330° |
| 2026-04-22 07:54 | 42.67190 | 2.93062 | 1707 ft | 156 kts | 330° |
| 2026-04-22 07:54 | 42.68066 | 2.92328 | 1482 ft | 143 kts | 330° |
| 2026-04-22 07:54 | 42.68892 | 2.91649 | 1286 ft | 137 kts | 330° |
| 2026-04-22 07:55 | 42.69698 | 2.90986 | 1085 ft | 136 kts | 329° |
| 2026-04-22 07:55 | 42.70493 | 2.90293 | 944 ft | 132 kts | 329° |
| 2026-04-22 07:55 | 42.71266 | 2.89638 | 736 ft | 132 kts | 330° |
| 2026-04-22 07:55 | 42.72055 | 2.88974 | 531 ft | 134 kts | 332° |
| 2026-04-22 07:56 | 42.72853 | 2.88314 | 365 ft | 133 kts | 332° |
| 2026-04-22 07:56 | 42.73643 | 2.87655 | 199 ft | 133 kts | 331° |
| 2026-04-22 07:56 | 42.74335 | 2.87077 | 155 ft | 85 kts | 329° |
| 2026-04-22 07:56 | 42.74670 | 2.86791 | 155 ft | 44 kts | 328° |
| 2026-04-22 07:57 | 42.74902 | 2.86596 | 155 ft | 26 kts | 328° |
| 2026-04-22 07:57 | 42.74967 | 2.86499 | 155 ft | 15 kts | 277° |
| 2026-04-22 07:57 | 42.74969 | 2.86376 | 153 ft | 12 kts | 245° |
| 2026-04-22 07:57 | 42.74893 | 2.86345 | 153 ft | 13 kts | 159° |
| 2026-04-22 07:58 | 42.74807 | 2.86416 | 153 ft | 15 kts | 148° |
| 2026-04-22 07:58 | 42.74709 | 2.86499 | 153 ft | 18 kts | 148° |
| 2026-04-22 07:58 | 42.74599 | 2.86591 | 153 ft | 19 kts | 148° |
| 2026-04-22 07:58 | 42.74490 | 2.86682 | 153 ft | 19 kts | 148° |
| 2026-04-22 07:59 | 42.74395 | 2.86762 | 153 ft | 15 kts | 148° |
| 2026-04-22 07:59 | 42.74308 | 2.86836 | 153 ft | 15 kts | 148° |
| 2026-04-22 07:59 | 42.74226 | 2.86906 | 153 ft | 13 kts | 144° |
| 2026-04-22 07:59 | 42.74153 | 2.86991 | 153 ft | 15 kts | 148° |
| 2026-04-22 08:00 | 42.74059 | 2.87069 | 153 ft | 11 kts | 148° |
| 2026-04-22 08:00 | 42.74005 | 2.87081 | 153 ft | 8 kts | 209° |
| 2026-04-22 08:00 | 42.73967 | 2.87008 | 153 ft | 11 kts | 254° |
| 2026-04-22 08:00 | 42.73954 | 2.86911 | 153 ft | 5 kts | 259° |
| 2026-04-22 08:01 | 42.73965 | 2.86880 | 153 ft | 4 kts | 333° |
| 2026-04-22 08:01 | 42.73996 | 2.86870 | 153 ft | 4 kts | 350° |
| 2026-04-22 08:01 | 42.74011 | 2.86866 | 153 ft | 0 kts | 349° |